This is the latest recevied weather packets stored in our database for station/object SQ9SMC-13. If no packets are shown the sender has not sent any weather packets the latest 1 day(s).
| Time | Temp. | Humidity | Pressure | Rain* | Wind** | Luminosity | Snow |
|---|---|---|---|---|---|---|---|
| 1778005202 | 17.78° C | 44% | 1008.6 hPa | 0 mm | 0 m/s | 0 W/m² | - |
| 1778004903 | 18.33° C | 41% | 1008.4 hPa | 0 mm | 0 m/s | 1 W/m² | - |
| 1778004603 | 18.89° C | 39% | 1008.5 hPa | 0 mm | 0 m/s | 2 W/m² | - |
| 1778004304 | 20° C | 36% | 1008.3 hPa | 0 mm | 0 m/s | 3 W/m² | - |
| 1778004002 | 20.56° C | 33% | 1008.3 hPa | 0 mm | 0 m/s | 4 W/m² | - |
| 1778003703 | 21.11° C | 32% | 1008.4 hPa | 0 mm | 0 m/s | 6 W/m² | - |
| 1778003404 | 22.22° C | 29% | 1008.3 hPa | 0 mm | 0 m/s | 8 W/m² | - |
| 1778003103 | 22.78° C | 28% | 1008.3 hPa | 0 mm | 0 m/s | 10 W/m² | - |
| 1778002802 | 22.78° C | 27% | 1008.3 hPa | 0 mm | 0.45 m/s, 334° | 13 W/m² | - |
| 1778002504 | 22.78° C | 27% | 1008.3 hPa | 0 mm | 0 m/s | 15 W/m² | - |
| 1778002205 | 23.33° C | 26% | 1008.2 hPa | 0 mm | 0 m/s | 17 W/m² | - |
| 1778001904 | 23.89° C | 26% | 1008.1 hPa | 0 mm | 0.45 m/s, 45° | 18 W/m² | - |
| 1778001604 | 23.89° C | 25% | 1008.2 hPa | 0 mm | 0 m/s | 19 W/m² | - |
| 1778001303 | 23.89° C | 25% | 1008.4 hPa | 0 mm | 0.45 m/s, 340° | 21 W/m² | - |
| 1778001003 | 23.89° C | 24% | 1008.4 hPa | 0 mm | 0.45 m/s, 12° | 21 W/m² | - |
| 1778000712 | 24.44° C | 23% | 1008.3 hPa | 0 mm | 2.24 m/s, 30° | 21 W/m² | - |
| 1778000403 | 24.44° C | 23% | 1008.2 hPa | 0 mm | 1.34 m/s, 13° | 23 W/m² | - |
| 1778000104 | 24.44° C | 23% | 1008.4 hPa | 0 mm | 0.45 m/s, 77° | 27 W/m² | - |
| 1777999803 | 25° C | 23% | 1008.3 hPa | 0 mm | 0.89 m/s, 40° | 31 W/m² | - |
| 1777999502 | 25° C | 22% | 1008.2 hPa | 0 mm | 1.34 m/s, 24° | 33 W/m² | - |
| 1777999203 | 25.56° C | 22% | 1008.2 hPa | 0 mm | 1.34 m/s, 34° | 37 W/m² | - |
| 1777998903 | 25.56° C | 23% | 1008.2 hPa | 0 mm | 0.89 m/s, 112° | 45 W/m² | - |
| 1777998605 | 25.56° C | 22% | 1008 hPa | 0 mm | 2.24 m/s, 17° | 63 W/m² | - |
| 1777998302 | 26.11° C | 22% | 1008.3 hPa | 0 mm | 1.34 m/s, 5° | 60 W/m² | - |
| 1777998003 | 26.11° C | 21% | 1008.3 hPa | 0 mm | 1.79 m/s, 95° | 79 W/m² | - |
* Rain latest hour (hover to see other rain measurements)
** Current wind speed in m/s (hover to see current wind gust speed)